AIQ3005 VTBD-VTSP
Flight info
| Callsign | AIQ3005 |
|---|---|
| Flight time | 1h 10m |
| Altitude | 38000 |
| Route | SABIS3C SABIS Y8 SAVSA SAVSA1C |
| Aircraft | A21N/M-SDE2E3FGHIRWXY/LB1 |
Departure
| Time | 2026-05-07 06:08 |
|---|---|
| Airport | Don Mueang International Airport (VTBD) |
Arrival
| Time | 2026-05-07 07:18 |
|---|---|
| Airport | Phuket International Airport (VTSP) |
| Time | Latitude | Longitude | Altitude | Speed | Heading |
|---|---|---|---|---|---|
| 2026-05-07 05:55 | 13.91787 | 100.60328 | 23 ft | 0 kts | 28° |
| 2026-05-07 05:58 | 13.91779 | 100.60324 | 20 ft | 2 kts | 27° |
| 2026-05-07 05:59 | 13.91767 | 100.60317 | 24 ft | 2 kts | 27° |
| 2026-05-07 05:59 | 13.91749 | 100.60307 | 22 ft | 2 kts | 29° |
| 2026-05-07 05:59 | 13.91739 | 100.60302 | 22 ft | 2 kts | 30° |
| 2026-05-07 05:59 | 13.91725 | 100.60294 | 23 ft | 2 kts | 2° |
| 2026-05-07 06:00 | 13.91712 | 100.60303 | 20 ft | 2 kts | 298° |
| 2026-05-07 06:00 | 13.91702 | 100.60323 | 22 ft | 2 kts | 299° |
| 2026-05-07 06:00 | 13.91697 | 100.60333 | 21 ft | 2 kts | 298° |
| 2026-05-07 06:00 | 13.91689 | 100.60348 | 23 ft | 2 kts | 297° |
| 2026-05-07 06:01 | 13.91682 | 100.60363 | 22 ft | 2 kts | 299° |
| 2026-05-07 06:01 | 13.91673 | 100.60377 | 23 ft | 2 kts | 304° |
| 2026-05-07 06:01 | 13.91664 | 100.60391 | 21 ft | 2 kts | 302° |
| 2026-05-07 06:01 | 13.91652 | 100.60401 | 25 ft | 2 kts | 356° |
| 2026-05-07 06:02 | 13.91636 | 100.60402 | 20 ft | 2 kts | 0° |
| 2026-05-07 06:02 | 13.91620 | 100.60399 | 22 ft | 1 kts | 26° |
| 2026-05-07 06:03 | 13.91950 | 100.60580 | 21 ft | 384 kts | 26° |
| 2026-05-07 06:03 | 13.92611 | 100.61031 | 21 ft | 0 kts | 26° |
| 2026-05-07 06:03 | 13.92611 | 100.61032 | 21 ft | 0 kts | 26° |
| 2026-05-07 06:04 | 13.92611 | 100.61227 | 20 ft | 0 kts | 208° |
| 2026-05-07 06:06 | 13.92564 | 100.61316 | 19 ft | 384 kts | 208° |
| 2026-05-07 06:06 | 13.92478 | 100.61567 | 18 ft | 1 kts | 210° |
| 2026-05-07 06:06 | 13.92445 | 100.61549 | 18 ft | 7 kts | 208° |
| 2026-05-07 06:06 | 13.92402 | 100.61526 | 20 ft | 7 kts | 208° |
| 2026-05-07 06:07 | 13.92278 | 100.61456 | 19 ft | 47 kts | 209° |
| 2026-05-07 06:07 | 13.91823 | 100.61199 | 21 ft | 102 kts | 209° |
| 2026-05-07 06:07 | 13.91023 | 100.60763 | 27 ft | 155 kts | 211° |
| 2026-05-07 06:07 | 13.90043 | 100.60171 | 293 ft | 167 kts | 216° |
| 2026-05-07 06:08 | 13.89092 | 100.59544 | 950 ft | 162 kts | 214° |
| 2026-05-07 06:08 | 13.88126 | 100.58891 | 1567 ft | 171 kts | 212° |
| 2026-05-07 06:08 | 13.87190 | 100.58013 | 1884 ft | 199 kts | 243° |
| 2026-05-07 06:08 | 13.87015 | 100.56539 | 2134 ft | 225 kts | 285° |
| 2026-05-07 06:09 | 13.87712 | 100.55019 | 2434 ft | 250 kts | 300° |
| 2026-05-07 06:09 | 13.88620 | 100.53409 | 2918 ft | 265 kts | 298° |
| 2026-05-07 06:09 | 13.89487 | 100.51702 | 3584 ft | 271 kts | 296° |
| 2026-05-07 06:09 | 13.90300 | 100.49935 | 4344 ft | 275 kts | 295° |
| 2026-05-07 06:10 | 13.91075 | 100.48142 | 5094 ft | 278 kts | 294° |
| 2026-05-07 06:10 | 13.91843 | 100.46299 | 5826 ft | 282 kts | 294° |
| 2026-05-07 06:10 | 13.92611 | 100.44416 | 6509 ft | 287 kts | 293° |
| 2026-05-07 06:10 | 13.93385 | 100.42497 | 7194 ft | 291 kts | 293° |
| 2026-05-07 06:11 | 13.94151 | 100.40586 | 7931 ft | 293 kts | 293° |
| 2026-05-07 06:11 | 13.94935 | 100.38625 | 8668 ft | 296 kts | 293° |
| 2026-05-07 06:11 | 13.95722 | 100.36652 | 9420 ft | 299 kts | 293° |
| 2026-05-07 06:11 | 13.96517 | 100.34657 | 10111 ft | 303 kts | 293° |
| 2026-05-07 06:12 | 13.97221 | 100.32545 | 10455 ft | 320 kts | 278° |
| 2026-05-07 06:12 | 13.97367 | 100.30245 | 10875 ft | 330 kts | 273° |
| 2026-05-07 06:12 | 13.97450 | 100.27842 | 11462 ft | 335 kts | 272° |
| 2026-05-07 06:12 | 13.97511 | 100.25430 | 12074 ft | 339 kts | 272° |
| 2026-05-07 06:13 | 13.97580 | 100.23007 | 12691 ft | 343 kts | 272° |
| 2026-05-07 06:13 | 13.97631 | 100.20529 | 13316 ft | 347 kts | 267° |
| 2026-05-07 06:13 | 13.97273 | 100.18068 | 13929 ft | 349 kts | 254° |
| 2026-05-07 06:13 | 13.96524 | 100.15665 | 14526 ft | 352 kts | 250° |
| 2026-05-07 06:14 | 13.95672 | 100.13327 | 15111 ft | 355 kts | 248° |
| 2026-05-07 06:14 | 13.94767 | 100.10938 | 15698 ft | 358 kts | 248° |
| 2026-05-07 06:14 | 13.93807 | 100.08554 | 16187 ft | 365 kts | 243° |
| 2026-05-07 06:14 | 13.92404 | 100.06315 | 16406 ft | 378 kts | 227° |
| 2026-05-07 06:15 | 13.90375 | 100.04542 | 16617 ft | 389 kts | 213° |
| 2026-05-07 06:15 | 13.88058 | 100.03113 | 16807 ft | 398 kts | 202° |
| 2026-05-07 06:15 | 13.85451 | 100.02091 | 17157 ft | 402 kts | 196° |
| 2026-05-07 06:15 | 13.82750 | 100.01301 | 17549 ft | 404 kts | 192° |
| 2026-05-07 06:16 | 13.79990 | 100.00658 | 17936 ft | 406 kts | 190° |
| 2026-05-07 06:16 | 13.77244 | 100.00103 | 18271 ft | 409 kts | 189° |
| 2026-05-07 06:16 | 13.74431 | 99.99566 | 18570 ft | 411 kts | 189° |
| 2026-05-07 06:16 | 13.71608 | 99.99030 | 18865 ft | 413 kts | 189° |
| 2026-05-07 06:17 | 13.68780 | 99.98483 | 19139 ft | 415 kts | 189° |
| 2026-05-07 06:17 | 13.65954 | 99.97924 | 19397 ft | 417 kts | 189° |
| 2026-05-07 06:17 | 13.63102 | 99.97350 | 19643 ft | 418 kts | 189° |
| 2026-05-07 06:17 | 13.60241 | 99.96767 | 19883 ft | 419 kts | 189° |
| 2026-05-07 06:18 | 13.57373 | 99.96180 | 20093 ft | 421 kts | 189° |
| 2026-05-07 06:18 | 13.54487 | 99.95587 | 20306 ft | 423 kts | 189° |
| 2026-05-07 06:18 | 13.51596 | 99.94994 | 20510 ft | 424 kts | 189° |
| 2026-05-07 06:18 | 13.48693 | 99.94399 | 20727 ft | 425 kts | 189° |
| 2026-05-07 06:19 | 13.45779 | 99.93802 | 20937 ft | 427 kts | 189° |
| 2026-05-07 06:19 | 13.42904 | 99.93214 | 21162 ft | 428 kts | 189° |
| 2026-05-07 06:19 | 13.39963 | 99.92613 | 21372 ft | 430 kts | 189° |
| 2026-05-07 06:19 | 13.37020 | 99.92011 | 21611 ft | 431 kts | 189° |
| 2026-05-07 06:20 | 13.34072 | 99.91409 | 21848 ft | 433 kts | 189° |
| 2026-05-07 06:20 | 13.31094 | 99.90942 | 22092 ft | 433 kts | 185° |
| 2026-05-07 06:20 | 13.28093 | 99.90585 | 22334 ft | 434 kts | 184° |
| 2026-05-07 06:20 | 13.25079 | 99.90262 | 22558 ft | 436 kts | 184° |
| 2026-05-07 06:21 | 13.22092 | 99.89967 | 22778 ft | 437 kts | 184° |
| 2026-05-07 06:21 | 13.19059 | 99.89699 | 23012 ft | 438 kts | 182° |
| 2026-05-07 06:21 | 13.15997 | 99.89480 | 23223 ft | 440 kts | 182° |
| 2026-05-07 06:21 | 13.12935 | 99.89287 | 23451 ft | 442 kts | 181° |
| 2026-05-07 06:22 | 13.09854 | 99.89100 | 23638 ft | 443 kts | 181° |
| 2026-05-07 06:22 | 13.03689 | 99.88718 | 24020 ft | 446 kts | 182° |
| 2026-05-07 06:22 | 13.00573 | 99.88517 | 24218 ft | 448 kts | 182° |
| 2026-05-07 06:23 | 12.97493 | 99.88314 | 24417 ft | 449 kts | 182° |
| 2026-05-07 06:23 | 12.94353 | 99.88106 | 24621 ft | 451 kts | 182° |
| 2026-05-07 06:23 | 12.91207 | 99.87896 | 24839 ft | 452 kts | 182° |
| 2026-05-07 06:23 | 12.88061 | 99.87685 | 25048 ft | 453 kts | 182° |
| 2026-05-07 06:24 | 12.84938 | 99.87476 | 25274 ft | 455 kts | 182° |
| 2026-05-07 06:24 | 12.81766 | 99.87265 | 25504 ft | 457 kts | 182° |
| 2026-05-07 06:24 | 12.78586 | 99.87053 | 25748 ft | 459 kts | 182° |
| 2026-05-07 06:24 | 12.75393 | 99.86841 | 26004 ft | 460 kts | 182° |
| 2026-05-07 06:25 | 12.72183 | 99.86627 | 26261 ft | 462 kts | 182° |
| 2026-05-07 06:25 | 12.68994 | 99.86415 | 26502 ft | 464 kts | 182° |
| 2026-05-07 06:25 | 12.65761 | 99.86200 | 26743 ft | 466 kts | 182° |
| 2026-05-07 06:25 | 12.62504 | 99.85984 | 26954 ft | 468 kts | 182° |
| 2026-05-07 06:26 | 12.59236 | 99.85768 | 27210 ft | 470 kts | 182° |
| 2026-05-07 06:26 | 12.55968 | 99.85551 | 27456 ft | 472 kts | 182° |
| 2026-05-07 06:26 | 12.52678 | 99.85332 | 27687 ft | 473 kts | 182° |
| 2026-05-07 06:26 | 12.49385 | 99.85113 | 27921 ft | 475 kts | 183° |
| 2026-05-07 06:27 | 12.46119 | 99.84896 | 28120 ft | 477 kts | 182° |
| 2026-05-07 06:27 | 12.42781 | 99.84675 | 28375 ft | 478 kts | 182° |
| 2026-05-07 06:27 | 12.39452 | 99.84454 | 28646 ft | 479 kts | 182° |
| 2026-05-07 06:27 | 12.36116 | 99.84232 | 28979 ft | 478 kts | 183° |
| 2026-05-07 06:28 | 12.32838 | 99.84015 | 29317 ft | 477 kts | 182° |
| 2026-05-07 06:28 | 12.29524 | 99.83794 | 29661 ft | 475 kts | 183° |
| 2026-05-07 06:28 | 12.26224 | 99.83575 | 29961 ft | 475 kts | 183° |
| 2026-05-07 06:28 | 12.22905 | 99.83355 | 30160 ft | 476 kts | 183° |
| 2026-05-07 06:29 | 12.19653 | 99.83147 | 30640 ft | 469 kts | 183° |
| 2026-05-07 06:29 | 12.16389 | 99.82935 | 30958 ft | 468 kts | 184° |
| 2026-05-07 06:29 | 12.13133 | 99.82719 | 31211 ft | 467 kts | 184° |
| 2026-05-07 06:29 | 12.09916 | 99.82503 | 31478 ft | 467 kts | 184° |
| 2026-05-07 06:30 | 12.06671 | 99.82286 | 31765 ft | 466 kts | 184° |
| 2026-05-07 06:30 | 12.03440 | 99.82070 | 32041 ft | 465 kts | 184° |
| 2026-05-07 06:30 | 12.00224 | 99.81703 | 32303 ft | 464 kts | 190° |
| 2026-05-07 06:30 | 11.97079 | 99.81116 | 32577 ft | 462 kts | 192° |
| 2026-05-07 06:31 | 11.93933 | 99.80455 | 32852 ft | 461 kts | 193° |
| 2026-05-07 06:31 | 11.90787 | 99.79750 | 33123 ft | 460 kts | 193° |
| 2026-05-07 06:31 | 11.87659 | 99.79028 | 33369 ft | 459 kts | 193° |
| 2026-05-07 06:31 | 11.84531 | 99.78300 | 33604 ft | 459 kts | 194° |
| 2026-05-07 06:32 | 11.81452 | 99.77584 | 33817 ft | 459 kts | 194° |
| 2026-05-07 06:32 | 11.78329 | 99.76863 | 34044 ft | 458 kts | 194° |
| 2026-05-07 06:32 | 11.75220 | 99.76150 | 34238 ft | 457 kts | 194° |
| 2026-05-07 06:32 | 11.72102 | 99.75438 | 34432 ft | 457 kts | 193° |
| 2026-05-07 06:33 | 11.69125 | 99.74760 | 34672 ft | 453 kts | 193° |
| 2026-05-07 06:33 | 11.66265 | 99.74110 | 36498 ft | 371 kts | 192° |
| 2026-05-07 06:33 | 11.63998 | 99.73594 | 38754 ft | 309 kts | 192° |
| 2026-05-07 06:33 | 11.62026 | 99.73142 | 39460 ft | 273 kts | 191° |
| 2026-05-07 06:34 | 11.60269 | 99.72739 | 39825 ft | 247 kts | 191° |
| 2026-05-07 06:34 | 11.58638 | 99.72366 | 39815 ft | 234 kts | 191° |
| 2026-05-07 06:34 | 11.57054 | 99.72014 | 39417 ft | 240 kts | 191° |
| 2026-05-07 06:34 | 11.55296 | 99.71635 | 38061 ft | 284 kts | 191° |
| 2026-05-07 06:35 | 11.53133 | 99.71177 | 35886 ft | 354 kts | 192° |
| 2026-05-07 06:35 | 11.50466 | 99.70612 | 33477 ft | 429 kts | 193° |
| 2026-05-07 06:35 | 11.47277 | 99.69930 | 30814 ft | 506 kts | 192° |
| 2026-05-07 06:35 | 11.44125 | 99.69273 | 32903 ft | 441 kts | 192° |
| 2026-05-07 06:36 | 11.41191 | 99.68625 | 33632 ft | 432 kts | 194° |
| 2026-05-07 06:36 | 11.38291 | 99.67890 | 33986 ft | 428 kts | 195° |
| 2026-05-07 06:36 | 11.35400 | 99.67121 | 34212 ft | 427 kts | 195° |
| 2026-05-07 06:36 | 11.32511 | 99.66357 | 34389 ft | 428 kts | 195° |
| 2026-05-07 06:37 | 11.29624 | 99.65611 | 34562 ft | 428 kts | 195° |
| 2026-05-07 06:37 | 11.26752 | 99.64889 | 34745 ft | 428 kts | 194° |
| 2026-05-07 06:37 | 11.23854 | 99.64174 | 34861 ft | 430 kts | 194° |
| 2026-05-07 06:37 | 11.20930 | 99.63462 | 34992 ft | 431 kts | 194° |
| 2026-05-07 06:38 | 11.17998 | 99.62754 | 35102 ft | 432 kts | 194° |
| 2026-05-07 06:38 | 11.15070 | 99.62047 | 35264 ft | 433 kts | 193° |
| 2026-05-07 06:38 | 11.09189 | 99.60629 | 35415 ft | 437 kts | 193° |
| 2026-05-07 06:39 | 11.06215 | 99.59911 | 35555 ft | 438 kts | 193° |
| 2026-05-07 06:39 | 11.04245 | 99.59435 | 35644 ft | 438 kts | 193° |
| 2026-05-07 06:39 | 11.01273 | 99.58717 | 35765 ft | 439 kts | 192° |
| 2026-05-07 06:39 | 10.97328 | 99.57764 | 35941 ft | 439 kts | 192° |
| 2026-05-07 06:40 | 10.94355 | 99.57045 | 36073 ft | 440 kts | 192° |
| 2026-05-07 06:40 | 10.92370 | 99.56566 | 36137 ft | 440 kts | 192° |
| 2026-05-07 06:40 | 10.89379 | 99.55844 | 36245 ft | 441 kts | 193° |
| 2026-05-07 06:40 | 10.86387 | 99.55121 | 36340 ft | 442 kts | 192° |
| 2026-05-07 06:41 | 10.83388 | 99.54397 | 36470 ft | 442 kts | 192° |
| 2026-05-07 06:41 | 10.79510 | 99.53459 | 37372 ft | 406 kts | 192° |
| 2026-05-07 06:41 | 10.77799 | 99.53043 | 38972 ft | 347 kts | 193° |
| 2026-05-07 06:41 | 10.75685 | 99.52526 | 40661 ft | 293 kts | 192° |
| 2026-05-07 06:42 | 10.73729 | 99.52052 | 40675 ft | 294 kts | 192° |
| 2026-05-07 06:42 | 10.71540 | 99.51534 | 38299 ft | 363 kts | 192° |
| 2026-05-07 06:42 | 10.68776 | 99.50890 | 35660 ft | 443 kts | 192° |
| 2026-05-07 06:42 | 10.65597 | 99.50134 | 34279 ft | 482 kts | 193° |
| 2026-05-07 06:43 | 10.62477 | 99.49407 | 35403 ft | 446 kts | 192° |
| 2026-05-07 06:43 | 10.59562 | 99.48722 | 36415 ft | 424 kts | 193° |
| 2026-05-07 06:43 | 10.56754 | 99.48030 | 37243 ft | 406 kts | 193° |
| 2026-05-07 06:43 | 10.54039 | 99.47355 | 37741 ft | 396 kts | 193° |
| 2026-05-07 06:44 | 10.51391 | 99.46699 | 37875 ft | 395 kts | 193° |
| 2026-05-07 06:44 | 10.48715 | 99.46042 | 37885 ft | 396 kts | 192° |
| 2026-05-07 06:44 | 10.43320 | 99.44731 | 37883 ft | 399 kts | 192° |
| 2026-05-07 06:45 | 10.37880 | 99.43425 | 37878 ft | 402 kts | 192° |
| 2026-05-07 06:45 | 10.32446 | 99.42119 | 37877 ft | 405 kts | 192° |
| 2026-05-07 06:46 | 10.26938 | 99.40795 | 37867 ft | 408 kts | 192° |
| 2026-05-07 06:46 | 10.21381 | 99.39459 | 37869 ft | 411 kts | 192° |
| 2026-05-07 06:47 | 10.15779 | 99.38113 | 37476 ft | 426 kts | 192° |
| 2026-05-07 06:47 | 10.12793 | 99.37398 | 36429 ft | 456 kts | 192° |
| 2026-05-07 06:47 | 10.09609 | 99.36637 | 35407 ft | 484 kts | 193° |
| 2026-05-07 06:48 | 10.06312 | 99.35847 | 35562 ft | 482 kts | 193° |
| 2026-05-07 06:48 | 10.03079 | 99.35071 | 36091 ft | 472 kts | 193° |
| 2026-05-07 06:48 | 9.99893 | 99.34307 | 35975 ft | 475 kts | 192° |
| 2026-05-07 06:48 | 9.96590 | 99.33520 | 35608 ft | 484 kts | 193° |
| 2026-05-07 06:49 | 9.93373 | 99.32790 | 34551 ft | 488 kts | 192° |
| 2026-05-07 06:49 | 9.90063 | 99.32071 | 34313 ft | 476 kts | 192° |
| 2026-05-07 06:49 | 9.86841 | 99.31334 | 33686 ft | 473 kts | 193° |
| 2026-05-07 06:49 | 9.83642 | 99.30541 | 32908 ft | 472 kts | 194° |
| 2026-05-07 06:50 | 9.80449 | 99.29712 | 32151 ft | 472 kts | 194° |
| 2026-05-07 06:50 | 9.77299 | 99.28909 | 31842 ft | 460 kts | 193° |
| 2026-05-07 06:50 | 9.74216 | 99.28142 | 31621 ft | 448 kts | 193° |
| 2026-05-07 06:50 | 9.71273 | 99.27424 | 31412 ft | 435 kts | 193° |
| 2026-05-07 06:51 | 9.68364 | 99.26722 | 31210 ft | 424 kts | 192° |
| 2026-05-07 06:51 | 9.65529 | 99.26043 | 31019 ft | 412 kts | 193° |
| 2026-05-07 06:51 | 9.62764 | 99.25383 | 30790 ft | 403 kts | 192° |
| 2026-05-07 06:51 | 9.60059 | 99.24737 | 30463 ft | 396 kts | 192° |
| 2026-05-07 06:52 | 9.57385 | 99.24099 | 30065 ft | 392 kts | 192° |
| 2026-05-07 06:52 | 9.54743 | 99.23467 | 29590 ft | 388 kts | 192° |
| 2026-05-07 06:52 | 9.52143 | 99.22846 | 29129 ft | 385 kts | 192° |
| 2026-05-07 06:52 | 9.49547 | 99.22225 | 28701 ft | 382 kts | 192° |
| 2026-05-07 06:53 | 9.46973 | 99.21609 | 28288 ft | 378 kts | 192° |
| 2026-05-07 06:53 | 9.44424 | 99.20999 | 27864 ft | 374 kts | 192° |
| 2026-05-07 06:53 | 9.41924 | 99.20400 | 27450 ft | 370 kts | 191° |
| 2026-05-07 06:53 | 9.39431 | 99.19804 | 27034 ft | 366 kts | 191° |
| 2026-05-07 06:54 | 9.36966 | 99.19214 | 26641 ft | 363 kts | 192° |
| 2026-05-07 06:54 | 9.34520 | 99.18630 | 26249 ft | 359 kts | 191° |
| 2026-05-07 06:54 | 9.32091 | 99.18049 | 25855 ft | 356 kts | 192° |
| 2026-05-07 06:54 | 9.29692 | 99.17475 | 25472 ft | 353 kts | 192° |
| 2026-05-07 06:55 | 9.27310 | 99.16906 | 25097 ft | 349 kts | 192° |
| 2026-05-07 06:55 | 9.24952 | 99.16342 | 24729 ft | 346 kts | 191° |
| 2026-05-07 06:55 | 9.22634 | 99.15788 | 24364 ft | 343 kts | 192° |
| 2026-05-07 06:55 | 9.20319 | 99.15236 | 23998 ft | 340 kts | 191° |
| 2026-05-07 06:56 | 9.18018 | 99.14687 | 23634 ft | 338 kts | 191° |
| 2026-05-07 06:56 | 9.15735 | 99.14128 | 23231 ft | 336 kts | 193° |
| 2026-05-07 06:56 | 9.13540 | 99.13325 | 22782 ft | 336 kts | 204° |
| 2026-05-07 06:56 | 9.11539 | 99.12144 | 22359 ft | 335 kts | 211° |
| 2026-05-07 06:57 | 9.09633 | 99.10794 | 21943 ft | 332 kts | 215° |
| 2026-05-07 06:57 | 9.07831 | 99.09392 | 21559 ft | 329 kts | 217° |
| 2026-05-07 06:57 | 9.06048 | 99.07934 | 21175 ft | 326 kts | 218° |
| 2026-05-07 06:57 | 9.04305 | 99.06477 | 20783 ft | 323 kts | 218° |
| 2026-05-07 06:58 | 9.02576 | 99.05029 | 20383 ft | 321 kts | 217° |
| 2026-05-07 06:58 | 9.00855 | 99.03593 | 19983 ft | 319 kts | 217° |
| 2026-05-07 06:58 | 8.99143 | 99.02174 | 19632 ft | 316 kts | 217° |
| 2026-05-07 06:58 | 8.97461 | 99.00789 | 19273 ft | 313 kts | 217° |
| 2026-05-07 06:59 | 8.95771 | 98.99402 | 18914 ft | 311 kts | 217° |
| 2026-05-07 06:59 | 8.94091 | 98.98026 | 18541 ft | 309 kts | 217° |
| 2026-05-07 06:59 | 8.92418 | 98.96657 | 18177 ft | 308 kts | 217° |
| 2026-05-07 06:59 | 8.90781 | 98.95318 | 17873 ft | 305 kts | 217° |
| 2026-05-07 07:00 | 8.89132 | 98.93970 | 17830 ft | 305 kts | 217° |
| 2026-05-07 07:00 | 8.87479 | 98.92618 | 17837 ft | 305 kts | 217° |
| 2026-05-07 07:00 | 8.85826 | 98.91265 | 17835 ft | 305 kts | 217° |
| 2026-05-07 07:00 | 8.84175 | 98.89915 | 17838 ft | 305 kts | 217° |
| 2026-05-07 07:01 | 8.82553 | 98.88525 | 17833 ft | 305 kts | 221° |
| 2026-05-07 07:01 | 8.81107 | 98.86945 | 17833 ft | 307 kts | 230° |
| 2026-05-07 07:01 | 8.79926 | 98.85146 | 17831 ft | 308 kts | 241° |
| 2026-05-07 07:01 | 8.79017 | 98.83210 | 17826 ft | 308 kts | 245° |
| 2026-05-07 07:02 | 8.78183 | 98.81207 | 17458 ft | 309 kts | 246° |
| 2026-05-07 07:02 | 8.77373 | 98.79201 | 17066 ft | 306 kts | 246° |
| 2026-05-07 07:02 | 8.76572 | 98.77207 | 16686 ft | 303 kts | 246° |
| 2026-05-07 07:02 | 8.75792 | 98.75265 | 16314 ft | 301 kts | 246° |
| 2026-05-07 07:03 | 8.75004 | 98.73307 | 15937 ft | 299 kts | 246° |
| 2026-05-07 07:03 | 8.74221 | 98.71364 | 15572 ft | 297 kts | 246° |
| 2026-05-07 07:03 | 8.73440 | 98.69428 | 15190 ft | 295 kts | 246° |
| 2026-05-07 07:03 | 8.72665 | 98.67507 | 14835 ft | 294 kts | 246° |
| 2026-05-07 07:04 | 8.71893 | 98.65595 | 14451 ft | 292 kts | 246° |
| 2026-05-07 07:04 | 8.71139 | 98.63724 | 14119 ft | 290 kts | 246° |
| 2026-05-07 07:04 | 8.70378 | 98.61842 | 13773 ft | 288 kts | 246° |
| 2026-05-07 07:04 | 8.69626 | 98.59980 | 13300 ft | 288 kts | 246° |
| 2026-05-07 07:05 | 8.68862 | 98.58092 | 12840 ft | 289 kts | 246° |
| 2026-05-07 07:05 | 8.68107 | 98.56222 | 12516 ft | 285 kts | 246° |
| 2026-05-07 07:05 | 8.67359 | 98.54371 | 12133 ft | 283 kts | 246° |
| 2026-05-07 07:05 | 8.66617 | 98.52537 | 11759 ft | 281 kts | 246° |
| 2026-05-07 07:06 | 8.65890 | 98.50737 | 11400 ft | 278 kts | 246° |
| 2026-05-07 07:06 | 8.65101 | 98.48960 | 11031 ft | 275 kts | 240° |
| 2026-05-07 07:06 | 8.64078 | 98.47324 | 10624 ft | 274 kts | 229° |
| 2026-05-07 07:06 | 8.62789 | 98.45925 | 10263 ft | 270 kts | 218° |
| 2026-05-07 07:07 | 8.61288 | 98.44818 | 10059 ft | 265 kts | 207° |
| 2026-05-07 07:07 | 8.59641 | 98.44012 | 9768 ft | 261 kts | 197° |
| 2026-05-07 07:07 | 8.57913 | 98.43534 | 9378 ft | 258 kts | 187° |
| 2026-05-07 07:07 | 8.56143 | 98.43376 | 8998 ft | 254 kts | 177° |
| 2026-05-07 07:08 | 8.54391 | 98.43532 | 8611 ft | 251 kts | 167° |
| 2026-05-07 07:08 | 8.52710 | 98.43987 | 8237 ft | 248 kts | 157° |
| 2026-05-07 07:08 | 8.51155 | 98.44709 | 8049 ft | 245 kts | 149° |
| 2026-05-07 07:08 | 8.49671 | 98.45560 | 8018 ft | 245 kts | 148° |
| 2026-05-07 07:09 | 8.48194 | 98.46436 | 8014 ft | 246 kts | 148° |
| 2026-05-07 07:09 | 8.46734 | 98.47304 | 8016 ft | 246 kts | 148° |
| 2026-05-07 07:09 | 8.45248 | 98.48182 | 8013 ft | 246 kts | 148° |
| 2026-05-07 07:09 | 8.43769 | 98.49054 | 8014 ft | 245 kts | 148° |
| 2026-05-07 07:10 | 8.42307 | 98.49913 | 8017 ft | 245 kts | 148° |
| 2026-05-07 07:10 | 8.40832 | 98.50780 | 8013 ft | 245 kts | 148° |
| 2026-05-07 07:10 | 8.39352 | 98.51650 | 8015 ft | 245 kts | 148° |
| 2026-05-07 07:10 | 8.37892 | 98.52507 | 8015 ft | 245 kts | 148° |
| 2026-05-07 07:11 | 8.36360 | 98.53282 | 8015 ft | 247 kts | 157° |
| 2026-05-07 07:11 | 8.34702 | 98.53745 | 8017 ft | 248 kts | 168° |
| 2026-05-07 07:11 | 8.32981 | 98.53964 | 7889 ft | 249 kts | 172° |
| 2026-05-07 07:11 | 8.31251 | 98.54125 | 7501 ft | 249 kts | 173° |
| 2026-05-07 07:12 | 8.29549 | 98.54275 | 7159 ft | 247 kts | 173° |
| 2026-05-07 07:12 | 8.27843 | 98.54428 | 6818 ft | 245 kts | 173° |
| 2026-05-07 07:12 | 8.26139 | 98.54584 | 6440 ft | 245 kts | 172° |
| 2026-05-07 07:12 | 8.24447 | 98.54740 | 6147 ft | 243 kts | 172° |
| 2026-05-07 07:13 | 8.22766 | 98.54884 | 6021 ft | 242 kts | 172° |
| 2026-05-07 07:13 | 8.21107 | 98.55027 | 5925 ft | 241 kts | 173° |
| 2026-05-07 07:13 | 8.19436 | 98.55182 | 5845 ft | 238 kts | 171° |
| 2026-05-07 07:13 | 8.17769 | 98.55311 | 5657 ft | 241 kts | 178° |
| 2026-05-07 07:14 | 8.16090 | 98.55113 | 5454 ft | 246 kts | 196° |
| 2026-05-07 07:14 | 8.14630 | 98.54278 | 5338 ft | 247 kts | 224° |
| 2026-05-07 07:14 | 8.13671 | 98.52835 | 5167 ft | 247 kts | 245° |
| 2026-05-07 07:14 | 8.13044 | 98.51226 | 4890 ft | 246 kts | 249° |
| 2026-05-07 07:15 | 8.12624 | 98.49551 | 4480 ft | 247 kts | 262° |
| 2026-05-07 07:15 | 8.12504 | 98.47843 | 4113 ft | 246 kts | 267° |
| 2026-05-07 07:15 | 8.12409 | 98.46119 | 3743 ft | 244 kts | 265° |
| 2026-05-07 07:15 | 8.12288 | 98.44409 | 3387 ft | 243 kts | 265° |
| 2026-05-07 07:16 | 8.12161 | 98.42681 | 2749 ft | 250 kts | 265° |
| 2026-05-07 07:16 | 8.12038 | 98.40961 | 2254 ft | 242 kts | 265° |
| 2026-05-07 07:16 | 8.11929 | 98.39330 | 1904 ft | 226 kts | 266° |
| 2026-05-07 07:16 | 8.11887 | 98.37799 | 1546 ft | 207 kts | 268° |
| 2026-05-07 07:17 | 8.11785 | 98.36410 | 1117 ft | 193 kts | 262° |
| 2026-05-07 07:17 | 8.11646 | 98.35096 | 719 ft | 185 kts | 262° |
| 2026-05-07 07:17 | 8.11523 | 98.33834 | 390 ft | 175 kts | 263° |
| 2026-05-07 07:17 | 8.11412 | 98.32643 | 109 ft | 161 kts | 263° |
| 2026-05-07 07:18 | 8.11316 | 98.31595 | 44 ft | 128 kts | 262° |
| 2026-05-07 07:18 | 8.11264 | 98.31066 | 33 ft | 50 kts | 265° |
| 2026-05-07 07:18 | 8.11233 | 98.30749 | 31 ft | 40 kts | 264° |
| 2026-05-07 07:18 | 8.11206 | 98.30546 | 31 ft | 10 kts | 251° |
| 2026-05-07 07:19 | 8.11177 | 98.30525 | 30 ft | 4 kts | 191° |
| 2026-05-07 07:19 | 8.11153 | 98.30520 | 30 ft | 0 kts | 191° |
| 2026-05-07 07:22 | 8.11151 | 98.30520 | 30 ft | 1 kts | 191° |
| 2026-05-07 07:22 | 8.11142 | 98.30518 | 30 ft | 2 kts | 191° |
| 2026-05-07 07:22 | 8.11127 | 98.30514 | 30 ft | 3 kts | 195° |
| 2026-05-07 07:23 | 8.11106 | 98.30508 | 30 ft | 4 kts | 195° |
| 2026-05-07 07:23 | 8.11080 | 98.30505 | 30 ft | 3 kts | 168° |
| 2026-05-07 07:23 | 8.11059 | 98.30518 | 30 ft | 4 kts | 131° |
| 2026-05-07 07:23 | 8.11053 | 98.30539 | 30 ft | 0 kts | 90° |
| 2026-05-07 07:24 | 8.11053 | 98.30540 | 30 ft | 0 kts | 90° |
| 2026-05-07 07:24 | 8.11053 | 98.30551 | 31 ft | 6 kts | 90° |
| 2026-05-07 07:24 | 8.11057 | 98.30612 | 31 ft | 3 kts | 97° |
| 2026-05-07 07:24 | 8.11040 | 98.30630 | 31 ft | 9 kts | 144° |
| 2026-05-07 07:25 | 8.10987 | 98.30636 | 31 ft | 0 kts | 174° |